createdAt,value
2019-06-20T00:03:06.351Z,36
2019-06-20T00:08:06.352Z,37
2019-06-20T00:13:09.076Z,34
2019-06-20T00:18:06.388Z,61
2019-06-20T00:23:06.394Z,45
2019-06-20T00:28:06.465Z,49
2019-06-20T00:33:06.488Z,36
2019-06-20T00:38:06.363Z,32
2019-06-20T00:43:22.697Z,34
2019-06-20T00:48:06.317Z,36
2019-06-20T00:53:06.289Z,43
2019-06-20T00:58:06.317Z,49
2019-06-20T01:03:06.409Z,51
2019-06-20T01:08:06.344Z,50
2019-06-20T01:13:06.295Z,37
2019-06-20T01:18:06.330Z,37
2019-06-20T01:23:06.627Z,35
2019-06-20T01:28:06.288Z,39
2019-06-20T01:33:06.328Z,30
2019-06-20T01:38:06.331Z,29
2019-06-20T01:43:06.963Z,30
2019-06-20T01:48:06.262Z,31
2019-06-20T01:53:06.294Z,35
2019-06-20T01:58:06.241Z,38
2019-06-20T02:03:16.502Z,34
2019-06-20T02:08:06.294Z,30
2019-06-20T02:13:06.414Z,41
2019-06-20T02:18:06.270Z,26
2019-06-20T02:23:06.211Z,29
2019-06-20T02:28:06.253Z,31
2019-06-20T02:33:06.271Z,24
2019-06-20T02:38:06.285Z,26
2019-06-20T02:43:06.279Z,44
2019-06-20T02:48:06.206Z,45
2019-06-20T02:53:07.523Z,29
2019-06-20T02:58:06.206Z,31
2019-06-20T03:03:06.184Z,37
2019-06-20T03:08:07.237Z,28
2019-06-20T03:13:09.295Z,27
2019-06-20T03:18:06.194Z,33
2019-06-20T03:23:06.296Z,27
2019-06-20T03:28:06.233Z,36
2019-06-20T03:33:06.242Z,37
2019-06-20T03:38:06.209Z,28
2019-06-20T03:43:06.229Z,30
2019-06-20T03:48:06.257Z,22
2019-06-20T03:53:06.148Z,27
2019-06-20T03:58:06.168Z,22
2019-06-20T04:03:06.902Z,28
2019-06-20T04:08:06.954Z,32
2019-06-20T04:13:06.924Z,28
2019-06-20T04:18:06.893Z,21
2019-06-20T04:23:06.958Z,24
2019-06-20T04:28:06.907Z,21
2019-06-20T04:33:07.049Z,23
2019-06-20T04:38:06.951Z,21
2019-06-20T04:43:06.896Z,26
2019-06-20T04:48:07.007Z,20
2019-06-20T04:58:06.877Z,29
2019-06-20T05:03:06.942Z,23
2019-06-20T05:08:06.862Z,22
2019-06-20T05:13:06.875Z,21
2019-06-20T05:14:26.801Z,19
2019-06-20T05:19:26.889Z,26
2019-06-20T05:24:29.756Z,24
2019-06-20T05:29:26.997Z,26
2019-06-20T05:34:26.981Z,22
2019-06-20T05:39:26.823Z,22
2019-06-20T05:44:26.871Z,20
2019-06-20T05:49:27.384Z,25
2019-06-20T05:54:26.782Z,21
2019-06-20T05:59:26.789Z,27
2019-06-20T06:04:26.806Z,22
2019-06-20T06:09:27.184Z,22
2019-06-20T06:14:26.831Z,23
2019-06-20T06:19:26.866Z,20
2019-06-20T06:24:26.833Z,21
2019-06-20T06:29:26.797Z,24
2019-06-20T06:34:30.244Z,23
2019-06-20T06:39:26.786Z,23
2019-06-20T06:44:26.861Z,23
2019-06-20T06:49:26.782Z,25
2019-06-20T06:54:26.773Z,23
2019-06-20T06:59:26.762Z,23
2019-06-20T07:04:26.984Z,20
2019-06-20T07:09:26.744Z,20
2019-06-20T07:14:26.759Z,22
2019-06-20T07:19:26.732Z,22
2019-06-20T07:24:26.747Z,24
2019-06-20T07:29:26.745Z,21
2019-06-20T07:34:26.736Z,21
2019-06-20T07:39:26.724Z,24
2019-06-20T07:44:26.738Z,25
2019-06-20T07:49:26.758Z,19
2019-06-20T07:54:26.741Z,20
2019-06-20T07:59:26.721Z,22
2019-06-20T08:04:26.765Z,24
2019-06-20T08:09:47.926Z,20
2019-06-20T08:14:26.760Z,21
2019-06-20T08:19:26.786Z,23
2019-06-20T08:24:26.657Z,19
2019-06-20T08:29:29.616Z,17
2019-06-20T08:34:28.656Z,19
2019-06-20T08:39:29.246Z,20
2019-06-20T08:44:26.639Z,18
2019-06-20T08:49:26.662Z,17
2019-06-20T08:54:26.672Z,18
2019-06-20T08:59:32.806Z,18
2019-06-20T09:04:28.811Z,14
2019-06-20T09:09:26.674Z,15
2019-06-20T09:14:26.855Z,17
2019-06-20T09:19:26.681Z,17
2019-06-20T09:24:26.709Z,17
2019-06-20T09:29:38.361Z,18
2019-06-20T09:34:26.627Z,19
2019-06-20T09:39:26.607Z,19
2019-06-20T09:44:26.612Z,16
2019-06-20T09:49:26.619Z,15
2019-06-20T09:54:26.621Z,19
2019-06-20T09:59:35.897Z,17
2019-06-20T10:04:29.835Z,17
2019-06-20T10:09:26.625Z,18
2019-06-20T10:14:26.647Z,18
2019-06-20T10:19:26.569Z,20
2019-06-20T10:24:26.587Z,19
2019-06-20T10:29:26.570Z,18
2019-06-20T10:34:26.579Z,20
2019-06-20T10:39:26.568Z,18
2019-06-20T10:44:26.582Z,18
2019-06-20T10:49:26.709Z,21
2019-06-20T10:54:27.326Z,19
2019-06-20T10:59:27.326Z,16
2019-06-20T11:04:27.311Z,17
2019-06-20T11:09:27.332Z,17
2019-06-20T11:14:27.264Z,18
2019-06-20T11:19:27.272Z,20
2019-06-20T11:24:27.314Z,23
2019-06-20T11:29:27.365Z,24
2019-06-20T11:34:27.477Z,24
2019-06-20T11:39:27.294Z,21
2019-06-20T11:44:27.314Z,21
2019-06-20T11:49:27.265Z,25
2019-06-20T11:54:27.255Z,22
2019-06-20T11:59:27.406Z,18
2019-06-20T12:04:27.230Z,21
2019-06-20T12:09:27.223Z,19
2019-06-20T12:14:27.555Z,14
2019-06-20T12:19:27.366Z,20
2019-06-20T12:24:27.371Z,18
2019-06-20T12:29:27.319Z,16
2019-06-20T12:34:27.401Z,14
2019-06-20T12:39:27.239Z,15
2019-06-20T12:44:27.247Z,17
2019-06-20T12:49:30.123Z,18
2019-06-20T12:54:30.010Z,15
2019-06-20T12:59:31.463Z,16
2019-06-20T13:04:27.228Z,17
2019-06-20T13:09:27.155Z,16
2019-06-20T13:14:27.249Z,20
2019-06-20T13:19:27.260Z,15
2019-06-20T13:24:27.217Z,17
2019-06-20T13:29:27.200Z,15
2019-06-20T13:34:27.194Z,27
2019-06-20T13:39:27.193Z,16
2019-06-20T13:44:28.123Z,16
2019-06-20T13:49:27.164Z,15
2019-06-20T13:54:27.178Z,15
2019-06-20T13:59:27.177Z,31
2019-06-20T14:04:27.259Z,18
2019-06-20T14:09:27.193Z,14
2019-06-20T14:14:27.173Z,16
2019-06-20T14:19:27.412Z,17
2019-06-20T14:24:27.227Z,48
2019-06-20T14:29:27.178Z,16
2019-06-20T14:36:14.142Z,21
2019-06-20T14:41:14.194Z,18
2019-06-20T14:46:14.117Z,19
2019-06-20T14:51:14.099Z,21
2019-06-20T14:56:14.100Z,17
2019-06-20T15:01:14.200Z,17
2019-06-20T15:06:14.730Z,14
2019-06-20T15:11:16.541Z,23
2019-06-20T15:16:14.105Z,24
2019-06-20T15:21:15.404Z,18
2019-06-20T15:26:14.083Z,17
2019-06-20T15:31:14.088Z,18
2019-06-20T15:36:14.102Z,16
2019-06-20T15:41:16.631Z,17
2019-06-20T15:46:14.205Z,18
2019-06-20T15:51:14.071Z,19
2019-06-20T15:56:14.484Z,17
2019-06-20T16:01:14.139Z,19
2019-06-20T16:06:14.068Z,16
2019-06-20T16:11:14.098Z,16
2019-06-20T16:16:14.155Z,17
2019-06-20T16:21:14.024Z,49
2019-06-20T16:26:14.027Z,16
2019-06-20T16:31:32.583Z,20
2019-06-20T16:36:17.166Z,15
2019-06-20T16:41:14.002Z,20
2019-06-20T16:46:13.962Z,17
2019-06-20T16:51:15.344Z,20
2019-06-20T16:56:14.006Z,15
2019-06-20T17:01:14.034Z,18
2019-06-20T17:06:13.977Z,15
2019-06-20T17:11:14.023Z,20
2019-06-20T17:16:13.979Z,15
2019-06-20T17:21:13.957Z,16
2019-06-20T17:26:16.094Z,17
2019-06-20T17:31:14.042Z,17
2019-06-20T17:36:26.370Z,23
2019-06-20T17:41:13.936Z,18
2019-06-20T17:46:13.950Z,20
2019-06-20T17:51:13.966Z,20
2019-06-20T17:56:13.978Z,28
2019-06-20T18:01:13.996Z,19
2019-06-20T18:06:13.952Z,19
2019-06-20T18:11:13.955Z,19
2019-06-20T18:16:30.211Z,19
2019-06-20T18:21:13.925Z,21
2019-06-20T18:26:13.918Z,23
2019-06-20T18:31:14.017Z,22
2019-06-20T18:36:14.037Z,23
2019-06-20T18:41:14.079Z,18
2019-06-20T18:46:13.919Z,20
2019-06-20T18:51:13.938Z,22
2019-06-20T18:56:13.906Z,24
2019-06-20T19:01:14.075Z,20
2019-06-20T19:06:13.899Z,19
2019-06-20T19:11:13.890Z,19
2019-06-20T19:16:13.871Z,25
2019-06-20T19:21:13.875Z,34
2019-06-20T19:26:13.912Z,44
2019-06-20T19:31:13.887Z,30
2019-06-20T19:36:13.919Z,27
2019-06-20T19:41:13.901Z,27
2019-06-20T19:46:13.885Z,29
2019-06-20T19:51:13.873Z,29
2019-06-20T19:56:13.848Z,30
2019-06-20T20:01:13.879Z,39
2019-06-20T20:06:13.864Z,36
2019-06-20T20:11:13.842Z,28
2019-06-20T20:16:13.876Z,28
2019-06-20T20:21:13.860Z,39
2019-06-20T20:26:17.061Z,29
2019-06-20T20:31:13.794Z,29
2019-06-20T20:36:30.058Z,28
2019-06-20T20:41:15.033Z,46
2019-06-20T20:46:13.835Z,35
2019-06-20T20:51:13.799Z,31
2019-06-20T20:56:13.838Z,25
2019-06-20T21:01:13.989Z,33
2019-06-20T21:06:13.873Z,28
2019-06-20T21:11:13.789Z,25
2019-06-20T21:16:13.875Z,28
2019-06-20T21:21:13.801Z,27
2019-06-20T21:26:13.795Z,25
2019-06-20T21:31:13.838Z,23
2019-06-20T21:36:17.263Z,25
2019-06-20T21:41:13.789Z,22
2019-06-20T21:46:15.365Z,25
2019-06-20T21:51:13.980Z,45
2019-06-20T21:56:13.816Z,35
2019-06-20T22:01:13.788Z,29
2019-06-20T22:06:29.022Z,34
2019-06-20T22:11:13.728Z,31
2019-06-20T22:16:13.746Z,29
2019-06-20T22:21:13.780Z,25
2019-06-20T22:26:13.770Z,26
2019-06-20T22:31:13.736Z,29
2019-06-20T22:36:13.761Z,35
2019-06-20T22:41:13.716Z,27
2019-06-20T22:46:13.748Z,27
2019-06-20T22:51:15.856Z,26
2019-06-20T22:56:13.854Z,28
2019-06-20T23:01:13.676Z,25
2019-06-20T23:06:13.699Z,28
2019-06-20T23:11:13.707Z,28
2019-06-20T23:16:13.702Z,26
2019-06-20T23:21:13.755Z,25
2019-06-20T23:26:13.699Z,24
2019-06-20T23:31:13.708Z,24
2019-06-20T23:36:13.732Z,26
2019-06-20T23:41:13.657Z,25
2019-06-20T23:46:13.712Z,31
2019-06-20T23:51:28.960Z,28
2019-06-20T23:56:16.312Z,30
